Chicago Rockford International Airport Chicago,Rockford US
ICAO: KRFD
IATA: RFD
Category: Large
Scheduled Services: Yes

Elevation: 742 ft
TransAlt. 18000 ft.

Airport Communications:
ROCKFORD APP/DEP:121
ATIS:126.7
CLNC DEL:119.25
GND:121.9
KANKAKEE RDO:122.65
ROCKFORD TWR:118.3
UNICOM:122.95

KRFD Zoom In..

If you have problems with the map follow the link
https://www.worldairports.se/pages/airport.php?
ICAO=KRFD

Runways:

(A) RW 01 length 8200 ft width 150 ft
ILS 109.30 / hdg 5

(B) RW 07 length 10002 ft width 150 ft
ILS 109.55 / hdg 65

(C) RW 19 length 8200 ft width 150 ft
---- / hdg 185

(D) RW 25 length 10002 ft width 150 ft
---- / hdg 245

Location; KRFD
Day. 14 / Time. 15.54 Zulu
* Altimeter: 29.78
* Temperature: -01° c. -30.2°f.
* Wind from: 300° Speed 11 kn.
Dewpoint: -03° c.
Visibility: 6 Statute Miles.
Clouds: Overcast 1000 ft.
Conditions: Haze.

KRFD 141554Z 30011KT 6SM HZ OVC010 M01/M03 A2978 RMK AO2 SLP091 T10061033 $


Wind From 300°
Speed 11 kn.

 
 
jpsmedia worldairports.se 2019   terms of use